Time;durP1;ratioP1;P1;durP2;ratioP2;P2;SDS_P1;SDS_P2;PMS_P1;PMS_P2;Temp;Humidity;BMP_temperature;BMP_pressure;BME280_temperature;BME280_humidity;BME280_pressure;Samples;Min_cycle;Max_cycle;Signal;HPM_P1;HPM_P2
2021/03/06 00:00:20;;;;;;;6.75;5.63;;;;;;;1.21;51.27;102643.13;690682;28;46392;-58
2021/03/06 00:00:41;;;;;;;7.22;5.63;;;;;;;1.18;51.10;102646.78;690559;28;69461;-61
2021/03/06 00:01:03;;;;;;;8.80;5.88;;;;;;;1.19;51.10;102644.97;692189;28;21510;-60
2021/03/06 00:01:24;;;;;;;9.63;6.03;;;;;;;1.19;51.18;102651.16;692269;28;23492;-60
2021/03/06 00:01:45;;;;;;;7.13;5.65;;;;;;;1.19;51.26;102644.97;692457;28;21143;-63
2021/03/06 00:02:06;;;;;;;6.55;5.78;;;;;;;1.19;51.16;102648.50;692654;28;22226;-59
2021/03/06 00:02:27;;;;;;;7.82;6.13;;;;;;;1.19;51.00;102639.66;692416;28;23473;-60
2021/03/06 00:02:51;;;;;;;8.50;6.25;;;;;;;1.18;51.04;102645.91;691422;28;23790;-60
2021/03/06 00:03:12;;;;;;;9.00;5.93;;;;;;;1.15;51.02;102638.94;690850;28;70196;-60
2021/03/06 00:03:33;;;;;;;8.13;5.78;;;;;;;1.17;51.01;102647.69;691943;28;21300;-55
2021/03/06 00:03:54;;;;;;;6.00;5.40;;;;;;;1.17;51.09;102654.81;692078;28;23429;-60
2021/03/06 00:04:15;;;;;;;6.50;5.60;;;;;;;1.15;51.26;102646.91;692408;28;24163;-60
2021/03/06 00:04:36;;;;;;;6.15;5.53;;;;;;;1.15;51.19;102654.91;691993;28;46304;-60
2021/03/06 00:04:58;;;;;;;6.05;5.45;;;;;;;1.15;51.05;102651.38;691388;28;23469;-60
2021/03/06 00:05:20;;;;;;;6.03;5.43;;;;;;;1.13;51.14;102643.47;692153;28;22421;-60
2021/03/06 00:05:41;;;;;;;6.70;5.68;;;;;;;1.12;51.19;102643.53;686718;28;67506;-60
2021/03/06 00:06:03;;;;;;;7.40;5.60;;;;;;;1.12;51.37;102651.50;689053;28;23313;-60
2021/03/06 00:06:24;;;;;;;6.40;5.30;;;;;;;1.11;51.18;102647.13;689307;28;22418;-60
2021/03/06 00:06:45;;;;;;;8.95;5.47;;;;;;;1.11;51.27;102650.63;689391;28;21531;-60
2021/03/06 00:07:06;;;;;;;9.15;5.65;;;;;;;1.13;51.37;102646.13;690385;28;22481;-60
2021/03/06 00:07:27;;;;;;;8.30;5.75;;;;;;;1.14;51.35;102646.97;689347;28;45110;-61
2021/03/06 00:07:49;;;;;;;8.65;5.85;;;;;;;1.15;51.36;102643.41;691778;28;23511;-61
2021/03/06 00:08:10;;;;;;;8.35;6.00;;;;;;;1.14;51.17;102641.66;691724;28;22409;-61
2021/03/06 00:08:31;;;;;;;9.00;5.70;;;;;;;1.14;51.31;102642.50;691990;28;22418;-59
2021/03/06 00:08:52;;;;;;;6.60;5.40;;;;;;;1.14;51.03;102646.97;690482;28;45273;-60
2021/03/06 00:09:14;;;;;;;7.47;5.18;;;;;;;1.14;51.23;102642.50;692263;28;24450;-62
2021/03/06 00:09:36;;;;;;;7.07;5.47;;;;;;;1.16;51.27;102640.66;693274;28;21411;-60
2021/03/06 00:09:57;;;;;;;7.05;5.45;;;;;;;1.16;51.20;102650.44;691604;28;45364;-60
2021/03/06 00:10:18;;;;;;;7.40;5.47;;;;;;;1.12;51.16;102640.88;692222;28;20864;-61
2021/03/06 00:10:39;;;;;;;7.15;5.75;;;;;;;1.15;51.37;102643.41;691671;28;45518;-62
2021/03/06 00:11:01;;;;;;;7.10;6.03;;;;;;;1.15;51.39;102646.06;692169;28;12544;-61
2021/03/06 00:11:22;;;;;;;6.93;5.85;;;;;;;1.15;51.20;102646.06;691689;28;21538;-60
2021/03/06 00:11:43;;;;;;;5.95;5.25;;;;;;;1.14;51.20;102647.84;692756;28;11712;-61
2021/03/06 00:12:05;;;;;;;6.70;5.28;;;;;;;1.15;51.18;102651.38;692341;28;43052;-62
2021/03/06 00:12:26;;;;;;;7.88;5.80;;;;;;;1.15;51.22;102648.72;691035;28;47195;-60
2021/03/06 00:12:49;;;;;;;8.63;5.72;;;;;;;1.10;51.27;102643.59;691728;28;21337;-60
2021/03/06 00:13:10;;;;;;;6.47;5.50;;;;;;;1.11;51.26;102644.44;691111;28;44418;-59
2021/03/06 00:13:35;;;;;;;7.00;5.35;;;;;;;1.10;51.46;102645.38;691165;28;47342;-59
2021/03/06 00:13:56;;;;;;;6.82;5.65;;;;;;;1.10;51.35;102646.25;691618;28;42645;-60
2021/03/06 00:14:17;;;;;;;8.18;5.43;;;;;;;1.11;51.29;102647.13;692491;28;21215;-59
2021/03/06 00:14:38;;;;;;;8.93;5.60;;;;;;;1.10;51.37;102648.91;692371;28;46401;-62
2021/03/06 00:15:00;;;;;;;7.00;5.25;;;;;;;1.12;51.34;102652.38;691962;28;21505;-61
2021/03/06 00:15:23;;;;;;;6.38;5.32;;;;;;;1.13;51.34;102653.22;692798;28;5171;-61
2021/03/06 00:15:45;;;;;;;6.88;5.22;;;;;;;1.15;51.50;102648.72;689425;28;91752;-62
2021/03/06 00:16:06;;;;;;;7.03;5.20;;;;;;;1.13;51.44;102643.47;690775;28;33214;-62
2021/03/06 00:16:27;;;;;;;8.02;5.82;;;;;;;1.14;51.37;102646.97;688360;28;23675;-65
2021/03/06 00:16:50;;;;;;;6.97;5.40;;;;;;;1.13;51.51;102647.91;690189;28;1322;-58
2021/03/06 00:17:11;;;;;;;7.65;5.45;;;;;;;1.14;51.56;102645.16;689467;28;46405;-61
2021/03/06 00:17:32;;;;;;;7.97;5.50;;;;;;;1.15;51.46;102649.56;689652;28;14519;-61
2021/03/06 00:17:54;;;;;;;7.75;5.40;;;;;;;1.16;51.35;102642.44;689332;28;21530;-59
2021/03/06 00:18:15;;;;;;;6.30;5.47;;;;;;;1.16;51.33;102647.75;690624;28;7350;-58
2021/03/06 00:18:36;;;;;;;7.40;5.68;;;;;;;1.15;51.23;102640.72;693190;28;827;-59
2021/03/06 00:18:57;;;;;;;8.77;5.65;;;;;;;1.15;51.46;102644.25;692568;28;23608;-61
2021/03/06 00:19:18;;;;;;;6.53;5.00;;;;;;;1.15;51.23;102649.56;692448;28;22429;-61
2021/03/06 00:19:39;;;;;;;5.75;4.75;;;;;;;1.16;51.25;102647.75;693934;28;1866;-62
2021/03/06 00:20:01;;;;;;;5.28;4.78;;;;;;;1.14;51.42;102647.84;691910;28;22392;-61
2021/03/06 00:20:22;;;;;;;5.47;4.97;;;;;;;1.15;51.49;102646.06;691065;28;40423;-61
2021/03/06 00:20:43;;;;;;;5.70;5.07;;;;;;;1.12;51.43;102649.72;692292;28;13657;-61
2021/03/06 00:21:06;;;;;;;7.07;5.32;;;;;;;1.12;51.30;102647.03;692839;28;1751;-60
2021/03/06 00:21:27;;;;;;;6.70;5.05;;;;;;;1.08;51.33;102641.00;692317;28;18907;-61
2021/03/06 00:21:48;;;;;;;5.82;5.10;;;;;;;1.11;51.42;102647.13;692196;28;23833;-61
2021/03/06 00:22:09;;;;;;;5.97;4.93;;;;;;;1.07;51.51;102641.94;693601;28;16004;-59
2021/03/06 00:22:31;;;;;;;5.65;5.05;;;;;;;1.08;51.46;102645.44;692309;28;21537;-58
2021/03/06 00:22:53;;;;;;;8.00;5.80;;;;;;;1.08;51.71;102643.66;691291;28;22812;-60
2021/03/06 00:23:14;;;;;;;8.27;4.90;;;;;;;1.06;51.53;102647.31;691141;28;41187;-60
2021/03/06 00:23:35;;;;;;;6.47;4.82;;;;;;;1.02;51.50;102635.94;692286;28;23626;-59
2021/03/06 00:23:56;;;;;;;5.70;5.15;;;;;;;1.06;51.66;102647.31;692376;28;23475;-60
2021/03/06 00:24:17;;;;;;;6.80;5.10;;;;;;;1.06;51.69;102642.00;689171;28;20477;-58
2021/03/06 00:24:38;;;;;;;6.68;5.47;;;;;;;1.05;51.58;102643.81;690003;28;23700;-58
2021/03/06 00:24:59;;;;;;;6.15;5.47;;;;;;;1.04;51.80;102641.22;688231;28;46175;-59
2021/03/06 00:25:21;;;;;;;5.97;5.35;;;;;;;1.04;51.84;102644.72;689543;28;23531;-60
2021/03/06 00:25:42;;;;;;;6.28;5.00;;;;;;;1.05;51.64;102645.56;689292;28;13126;-59
2021/03/06 00:26:03;;;;;;;6.55;5.30;;;;;;;1.04;51.78;102649.19;689598;28;21630;-57
2021/03/06 00:26:24;;;;;;;6.32;5.35;;;;;;;1.05;51.61;102648.25;690357;28;46368;-60
2021/03/06 00:26:45;;;;;;;5.57;5.03;;;;;;;1.04;51.65;102649.19;692177;28;24234;-60
2021/03/06 00:27:07;;;;;;;6.45;5.35;;;;;;;1.02;51.62;102640.41;694045;28;1979;-60
2021/03/06 00:27:28;;;;;;;7.80;5.35;;;;;;;1.03;51.63;102648.31;692039;28;23544;-61
2021/03/06 00:27:49;;;;;;;7.32;5.55;;;;;;;1.04;51.76;102649.19;691588;28;14119;-61
2021/03/06 00:28:10;;;;;;;6.45;5.22;;;;;;;1.02;51.75;102654.59;691735;28;20143;-61
2021/03/06 00:28:32;;;;;;;6.38;5.05;;;;;;;1.02;51.64;102651.91;692254;28;10375;-61
2021/03/06 00:28:53;;;;;;;5.93;5.13;;;;;;;1.03;51.60;102650.97;692112;28;33385;-60
2021/03/06 00:29:14;;;;;;;5.13;4.68;;;;;;;1.04;51.68;102652.72;692808;28;12213;-61
2021/03/06 00:29:35;;;;;;;7.20;5.03;;;;;;;1.06;51.63;102657.97;692792;28;1898;-61
2021/03/06 00:29:56;;;;;;;5.93;5.22;;;;;;;1.02;51.85;102643.06;692374;28;16101;-59
2021/03/06 00:30:20;;;;;;;6.55;5.07;;;;;;;1.07;51.58;102651.72;690579;28;45381;-60
2021/03/06 00:30:41;;;;;;;6.35;5.22;;;;;;;1.06;51.62;102652.63;690757;28;64573;-60
2021/03/06 00:31:02;;;;;;;7.03;5.63;;;;;;;1.09;51.54;102652.50;692138;28;23676;-61
2021/03/06 00:31:24;;;;;;;5.90;5.30;;;;;;;1.09;51.63;102649.84;692667;28;12838;-59
2021/03/06 00:31:45;;;;;;;6.05;5.07;;;;;;;1.09;51.50;102644.53;691457;28;47302;-60
2021/03/06 00:32:06;;;;;;;6.60;5.10;;;;;;;1.10;51.37;102651.59;693167;28;21543;-58
2021/03/06 00:32:27;;;;;;;6.70;5.38;;;;;;;1.08;51.59;102656.09;692102;28;24930;-59
2021/03/06 00:32:48;;;;;;;7.15;5.47;;;;;;;1.08;51.37;102656.97;691923;28;22408;-60
2021/03/06 00:33:09;;;;;;;6.75;4.95;;;;;;;1.03;51.32;102645.66;691575;28;46409;-59
2021/03/06 00:33:37;;;;;;;7.03;5.25;;;;;;;1.05;51.61;102648.25;690028;28;60912;-60
2021/03/06 00:34:03;;;;;;;5.90;5.30;;;;;;;1.03;51.63;102655.44;691526;28;37683;-60
2021/03/06 00:34:24;;;;;;;6.65;5.70;;;;;;;1.04;51.60;102647.38;691805;28;23409;-58
2021/03/06 00:34:45;;;;;;;6.38;5.60;;;;;;;1.02;51.75;102646.59;692610;28;46399;-59
2021/03/06 00:35:08;;;;;;;6.97;5.47;;;;;;;1.04;51.74;102647.38;691704;28;18587;-59
2021/03/06 00:35:29;;;;;;;8.38;5.13;;;;;;;1.05;51.59;102645.56;690853;28;42474;-59
2021/03/06 00:35:51;;;;;;;7.65;5.05;;;;;;;1.05;51.53;102650.91;687046;28;39152;-60
2021/03/06 00:36:12;;;;;;;7.03;5.32;;;;;;;1.04;51.76;102643.88;688666;28;22502;-59
2021/03/06 00:36:33;;;;;;;7.57;5.32;;;;;;;1.02;51.56;102648.38;689298;28;19332;-57
2021/03/06 00:36:54;;;;;;;6.90;4.95;;;;;;;1.03;51.55;102645.66;688868;28;23420;-60
2021/03/06 00:37:15;;;;;;;7.07;4.97;;;;;;;1.01;51.60;102647.53;690458;28;22376;-60
2021/03/06 00:37:36;;;;;;;5.93;4.78;;;;;;;1.02;51.58;102643.94;689872;28;21460;-61
2021/03/06 00:37:58;;;;;;;6.00;5.00;;;;;;;1.04;51.67;102650.03;691906;28;34871;-61
2021/03/06 00:38:19;;;;;;;6.20;5.00;;;;;;;1.03;51.54;102642.97;691754;28;15760;-60
2021/03/06 00:38:40;;;;;;;6.70;5.18;;;;;;;1.04;51.58;102644.72;688605;28;23528;-61
2021/03/06 00:39:03;;;;;;;6.18;5.15;;;;;;;1.05;51.60;102637.59;689583;28;22235;-61
2021/03/06 00:39:24;;;;;;;5.30;4.80;;;;;;;1.06;51.57;102644.66;687707;28;69418;-60
2021/03/06 00:39:45;;;;;;;5.82;5.03;;;;;;;1.05;51.47;102640.25;690410;28;24492;-60
2021/03/06 00:40:08;;;;;;;6.20;5.32;;;;;;;1.04;51.34;102635.88;689189;28;22424;-59
2021/03/06 00:40:29;;;;;;;8.65;5.38;;;;;;;1.05;51.50;102643.81;686985;28;91928;-61
2021/03/06 00:40:51;;;;;;;5.93;4.90;;;;;;;1.05;51.43;102635.81;692002;28;22412;-61
2021/03/06 00:41:12;;;;;;;6.53;5.25;;;;;;;1.06;51.50;102634.00;691606;28;22269;-60
2021/03/06 00:41:33;;;;;;;5.85;4.82;;;;;;;1.03;51.40;102634.16;692172;28;22630;-60
2021/03/06 00:41:54;;;;;;;6.57;5.05;;;;;;;1.06;51.58;102642.84;690692;28;44392;-60
2021/03/06 00:42:15;;;;;;;7.00;5.43;;;;;;;1.05;51.39;102635.81;690453;28;24350;-58
2021/03/06 00:42:37;;;;;;;6.00;5.28;;;;;;;1.04;51.27;102636.75;686299;28;23734;-58
2021/03/06 00:42:59;;;;;;;6.07;5.10;;;;;;;1.03;51.38;102631.50;685600;28;44396;-60
2021/03/06 00:43:20;;;;;;;6.30;5.13;;;;;;;1.02;51.55;102635.94;683339;28;20590;-58
2021/03/06 00:43:41;;;;;;;6.80;4.88;;;;;;;1.01;51.57;102638.69;683465;28;3861;-59
2021/03/06 00:44:03;;;;;;;6.90;5.00;;;;;;;1.00;51.58;102631.63;685139;28;1372;-60
2021/03/06 00:44:24;;;;;;;5.82;4.95;;;;;;;1.01;51.56;102639.53;686874;28;23456;-59
2021/03/06 00:44:45;;;;;;;5.82;4.90;;;;;;;1.00;51.50;102631.63;690860;28;12514;-60
2021/03/06 00:45:07;;;;;;;4.75;4.38;;;;;;;0.99;51.63;102638.75;689308;28;25736;-59
2021/03/06 00:45:29;;;;;;;5.15;4.65;;;;;;;0.97;51.64;102631.75;690139;28;34713;-58
2021/03/06 00:45:50;;;;;;;5.45;4.88;;;;;;;1.00;51.66;102631.63;688000;28;46464;-60
2021/03/06 00:46:11;;;;;;;5.25;4.75;;;;;;;1.01;51.54;102638.69;688834;28;22217;-57
2021/03/06 00:46:32;;;;;;;6.50;5.30;;;;;;;0.97;51.62;102626.44;689749;28;9747;-60
2021/03/06 00:46:54;;;;;;;5.72;4.95;;;;;;;1.00;51.63;102639.59;689006;28;44372;-57
2021/03/06 00:47:16;;;;;;;5.80;4.82;;;;;;;0.99;51.52;102630.78;690099;28;24337;-59
2021/03/06 00:47:38;;;;;;;5.43;4.88;;;;;;;1.00;51.59;102628.97;689187;28;21002;-59
2021/03/06 00:48:02;;;;;;;7.68;5.10;;;;;;;1.00;51.65;102635.13;682756;28;138023;-60
2021/03/06 00:48:24;;;;;;;6.65;5.03;;;;;;;1.00;51.46;102637.78;684802;28;68340;-59
2021/03/06 00:48:46;;;;;;;5.40;4.90;;;;;;;1.00;51.47;102632.47;683609;28;21529;-58
2021/03/06 00:49:07;;;;;;;5.60;4.93;;;;;;;1.00;51.47;102634.28;683485;28;46364;-59
2021/03/06 00:49:28;;;;;;;6.45;5.10;;;;;;;1.01;51.58;102633.38;685182;28;23379;-57
2021/03/06 00:49:49;;;;;;;5.40;4.90;;;;;;;0.99;51.53;102636.09;684770;28;22460;-61
2021/03/06 00:50:13;;;;;;;6.20;5.10;;;;;;;0.98;51.54;102634.34;685302;28;32952;-60
2021/03/06 00:50:36;;;;;;;6.53;5.20;;;;;;;1.00;51.52;102636.94;686103;28;48529;-61
2021/03/06 00:51:01;;;;;;;8.40;5.10;;;;;;;1.03;51.66;102636.81;685601;28;121236;-61
2021/03/06 00:51:23;;;;;;;7.53;4.97;;;;;;;1.01;51.43;102628.91;689770;28;906;-60
2021/03/06 00:51:44;;;;;;;6.85;5.43;;;;;;;1.03;51.35;102631.50;687530;28;45483;-60
2021/03/06 00:52:12;;;;;;;6.03;5.30;;;;;;;1.01;51.34;102630.69;679750;28;161786;-59
2021/03/06 00:52:33;;;;;;;6.60;5.20;;;;;;;1.02;51.39;102629.75;685261;28;43613;-60
2021/03/06 00:52:54;;;;;;;7.20;5.35;;;;;;;1.02;51.44;102638.63;685851;28;12996;-59
2021/03/06 00:53:19;;;;;;;6.38;5.10;;;;;;;0.97;51.48;102632.66;681548;28;90806;-58
2021/03/06 00:53:40;;;;;;;6.93;4.97;;;;;;;0.99;51.68;102628.09;681300;28;46310;-59
2021/03/06 00:54:01;;;;;;;7.63;4.70;;;;;;;0.97;51.44;102629.09;684877;28;15742;-59
2021/03/06 00:54:22;;;;;;;7.30;5.03;;;;;;;0.99;51.57;102638.75;686270;28;24470;-60
2021/03/06 00:54:44;;;;;;;6.88;5.30;;;;;;;0.99;51.48;102632.56;683643;28;46458;-60
2021/03/06 00:55:08;;;;;;;7.18;4.80;;;;;;;0.98;51.64;102634.34;682429;28;69147;-60
2021/03/06 00:55:29;;;;;;;7.20;5.22;;;;;;;0.97;51.54;102627.31;686613;28;47772;-61
2021/03/06 00:55:50;;;;;;;6.40;5.65;;;;;;;0.95;51.59;102629.16;687980;28;45267;-59
2021/03/06 00:56:12;;;;;;;6.40;5.18;;;;;;;0.95;51.59;102628.31;689395;28;17625;-59
2021/03/06 00:56:33;;;;;;;5.68;4.95;;;;;;;0.95;51.69;102630.97;689584;28;23657;-61
2021/03/06 00:56:54;;;;;;;6.90;5.10;;;;;;;0.93;51.61;102623.06;688850;28;23175;-60
2021/03/06 00:57:16;;;;;;;6.82;5.40;;;;;;;0.92;51.61;102626.63;688548;28;45266;-59
2021/03/06 00:57:38;;;;;;;6.05;5.25;;;;;;;0.92;51.79;102628.44;687810;28;46393;-60
2021/03/06 00:58:01;;;;;;;7.20;5.30;;;;;;;0.90;51.89;102629.38;684225;28;70888;-59
2021/03/06 00:58:23;;;;;;;6.38;5.15;;;;;;;0.89;51.82;102630.31;684729;28;44370;-59
2021/03/06 00:58:44;;;;;;;6.70;4.85;;;;;;;0.88;51.66;102628.59;687673;28;19188;-60
2021/03/06 00:59:06;;;;;;;8.15;5.63;;;;;;;0.89;51.77;102629.44;689333;28;22400;-60
2021/03/06 00:59:27;;;;;;;8.32;5.22;;;;;;;0.91;51.85;102632.91;687546;28;46291;-62
2021/03/06 00:59:48;;;;;;;6.35;4.97;;;;;;;0.91;51.86;102627.59;690160;28;23622;-59
2021/03/06 01:00:11;;;;;;;6.82;5.35;;;;;;;0.92;51.85;102628.44;689498;28;21525;-59
2021/03/06 01:00:33;;;;;;;6.97;5.40;;;;;;;0.92;51.66;102626.63;685606;28;92199;-60
2021/03/06 01:00:59;;;;;;;6.57;5.38;;;;;;;0.88;51.78;102628.59;685424;28;115884;-60
2021/03/06 01:01:21;;;;;;;6.35;5.03;;;;;;;0.90;51.81;102629.38;684086;28;69452;-61
2021/03/06 01:01:42;;;;;;;5.38;4.88;;;;;;;0.92;51.88;102623.13;683506;28;23786;-60
2021/03/06 01:02:04;;;;;;;6.38;5.15;;;;;;;0.89;51.77;102622.34;681370;29;45364;-60
2021/03/06 01:02:26;;;;;;;6.03;5.20;;;;;;;0.92;51.70;102625.78;676317;29;46531;-60
2021/03/06 01:02:47;;;;;;;6.10;5.10;;;;;;;0.90;51.59;102626.72;676012;29;21508;-58
2021/03/06 01:03:09;;;;;;;6.35;4.93;;;;;;;0.89;51.90;102618.78;676950;29;44382;-59
2021/03/06 01:03:30;;;;;;;5.85;5.13;;;;;;;0.91;51.74;102630.25;681269;28;45439;-60
2021/03/06 01:03:51;;;;;;;5.57;4.90;;;;;;;0.89;51.97;102629.44;684727;28;16182;-60
2021/03/06 01:04:13;;;;;;;6.70;5.15;;;;;;;0.90;51.72;102629.38;687755;28;11947;-60
2021/03/06 01:04:34;;;;;;;5.45;4.78;;;;;;;0.90;51.70;102628.50;689913;28;23320;-60
2021/03/06 01:04:55;;;;;;;7.05;5.40;;;;;;;0.91;51.73;102627.59;688739;28;42997;-60
2021/03/06 01:05:17;;;;;;;7.45;5.38;;;;;;;0.89;51.73;102624.13;689723;28;23504;-60
2021/03/06 01:05:38;;;;;;;6.18;5.28;;;;;;;0.91;51.79;102630.25;689567;28;22530;-60
2021/03/06 01:05:59;;;;;;;6.18;4.70;;;;;;;0.88;51.66;102625.06;688253;28;22412;-60
2021/03/06 01:06:21;;;;;;;6.93;4.90;;;;;;;0.90;51.85;102629.38;686268;28;47213;-59
2021/03/06 01:06:42;;;;;;;6.32;5.00;;;;;;;0.89;51.82;102629.44;688724;28;21497;-59
2021/03/06 01:07:04;;;;;;;6.20;4.95;;;;;;;0.88;51.72;102625.91;690475;28;22250;-59
2021/03/06 01:07:26;;;;;;;5.78;5.10;;;;;;;0.88;51.64;102622.41;687518;28;69502;-60
2021/03/06 01:07:47;;;;;;;5.75;4.85;;;;;;;0.88;51.84;102628.59;688857;28;23503;-60
2021/03/06 01:08:08;;;;;;;6.50;5.00;;;;;;;0.88;51.80;102627.72;688074;28;45096;-60
2021/03/06 01:08:29;;;;;;;6.72;4.97;;;;;;;0.85;51.78;102628.72;689269;28;23461;-61
2021/03/06 01:08:51;;;;;;;5.95;5.10;;;;;;;0.85;51.69;102626.06;689508;28;22398;-60
2021/03/06 01:09:12;;;;;;;5.72;5.22;;;;;;;0.84;51.93;102626.13;688982;28;22396;-60
2021/03/06 01:09:34;;;;;;;6.13;5.28;;;;;;;0.81;51.97;102621.78;689958;28;23432;-61
2021/03/06 01:09:55;;;;;;;7.53;5.45;;;;;;;0.83;52.05;102624.38;688999;28;44740;-60
2021/03/06 01:10:19;;;;;;;9.43;5.57;;;;;;;0.82;52.13;102620.00;689605;28;22405;-60
2021/03/06 01:10:43;;;;;;;6.93;4.93;;;;;;;0.83;51.83;102625.25;687205;28;92220;-59
2021/03/06 01:11:05;;;;;;;5.88;4.63;;;;;;;0.80;52.01;102619.19;686873;28;90723;-61
2021/03/06 01:11:26;;;;;;;7.53;5.50;;;;;;;0.83;52.02;102630.59;689692;28;23202;-60
2021/03/06 01:11:47;;;;;;;7.13;5.00;;;;;;;0.83;51.95;102624.38;689657;28;22259;-60
2021/03/06 01:12:08;;;;;;;5.18;4.68;;;;;;;0.83;52.04;102627.94;689182;28;46259;-59
2021/03/06 01:12:29;;;;;;;6.60;5.20;;;;;;;0.84;51.78;102626.13;688887;28;22407;-59
2021/03/06 01:12:50;;;;;;;7.13;5.50;;;;;;;0.84;51.96;102623.47;689021;28;22376;-59
2021/03/06 01:13:12;;;;;;;6.15;4.85;;;;;;;0.84;51.92;102629.63;688606;28;22417;-58
2021/03/06 01:13:33;;;;;;;6.78;5.13;;;;;;;0.82;51.97;102625.34;688206;28;46440;-61
2021/03/06 01:13:54;;;;;;;6.78;5.47;;;;;;;0.84;51.92;102631.44;689558;28;21261;-61
2021/03/06 01:14:15;;;;;;;6.40;5.00;;;;;;;0.83;51.91;102622.59;689651;28;22630;-59
2021/03/06 01:14:36;;;;;;;7.15;5.07;;;;;;;0.84;51.99;102626.97;690249;28;22410;-60
2021/03/06 01:14:58;;;;;;;5.88;5.05;;;;;;;0.81;51.90;102623.59;689953;28;7521;-59
2021/03/06 01:15:19;;;;;;;7.18;4.80;;;;;;;0.77;52.18;102622.88;689023;28;46289;-61
2021/03/06 01:15:41;;;;;;;8.18;5.05;;;;;;;0.78;52.21;102621.06;689462;28;11018;-60
2021/03/06 01:16:02;;;;;;;5.90;5.00;;;;;;;0.75;52.22;102619.41;688750;28;32305;-60
2021/03/06 01:16:24;;;;;;;6.20;4.82;;;;;;;0.75;52.36;102627.38;691421;28;21741;-60
2021/03/06 01:16:45;;;;;;;5.82;5.03;;;;;;;0.74;52.24;102625.66;690938;28;44451;-60
2021/03/06 01:17:06;;;;;;;5.95;4.80;;;;;;;0.71;52.22;102629.31;693755;28;16805;-59
2021/03/06 01:17:31;;;;;;;6.00;4.75;;;;;;;0.72;52.32;102624.84;691386;28;38355;-60
2021/03/06 01:17:53;;;;;;;5.25;4.75;;;;;;;0.71;52.45;102621.34;691495;28;22403;-60
2021/03/06 01:18:14;;;;;;;4.85;4.35;;;;;;;0.74;52.47;102622.13;690317;28;34365;-60
2021/03/06 01:18:35;;;;;;;4.80;4.40;;;;;;;0.73;52.39;102633.72;689386;28;24473;-60
2021/03/06 01:18:56;;;;;;;5.43;4.85;;;;;;;0.69;52.41;102619.66;689611;28;22156;-60
2021/03/06 01:19:17;;;;;;;5.82;5.20;;;;;;;0.70;52.43;102622.25;689685;28;23238;-60
2021/03/06 01:19:39;;;;;;;6.85;4.90;;;;;;;0.71;52.47;102626.66;690055;28;23442;-61
2021/03/06 01:20:00;;;;;;;6.90;4.55;;;;;;;0.70;52.47;102624.91;688870;28;21496;-62
2021/03/06 01:20:21;;;;;;;6.97;5.03;;;;;;;0.71;52.46;102626.66;689881;28;894;-61
2021/03/06 01:20:43;;;;;;;8.48;5.25;;;;;;;0.72;52.49;102624.84;690277;28;937;-61
2021/03/06 01:21:05;;;;;;;5.30;4.80;;;;;;;0.72;52.46;102627.50;690190;28;1504;-61
2021/03/06 01:21:26;;;;;;;6.10;5.00;;;;;;;0.74;52.40;102619.47;688514;28;47273;-62
2021/03/06 01:21:47;;;;;;;4.97;4.43;;;;;;;0.74;52.42;102627.44;689581;28;23455;-62
2021/03/06 01:22:08;;;;;;;5.65;4.50;;;;;;;0.71;52.15;102621.34;690208;28;22419;-61
2021/03/06 01:22:30;;;;;;;6.00;4.60;;;;;;;0.71;52.26;102629.31;689034;28;21237;-60
2021/03/06 01:22:51;;;;;;;6.50;4.85;;;;;;;0.70;52.36;102624.06;689080;28;24057;-61
2021/03/06 01:23:12;;;;;;;6.90;4.95;;;;;;;0.71;52.39;102623.13;689748;28;9974;-62
2021/03/06 01:23:34;;;;;;;5.57;4.97;;;;;;;0.73;52.27;102629.25;689729;28;1209;-59
2021/03/06 01:23:55;;;;;;;5.60;5.07;;;;;;;0.74;52.17;102627.44;689568;28;24711;-62
2021/03/06 01:24:16;;;;;;;6.70;5.05;;;;;;;0.74;52.33;102619.47;690013;28;8500;-62
2021/03/06 01:24:38;;;;;;;6.75;5.10;;;;;;;0.74;52.17;102616.81;690908;28;8324;-60
2021/03/06 01:24:59;;;;;;;6.32;4.82;;;;;;;0.74;52.15;102624.78;688140;28;45509;-60
2021/03/06 01:25:20;;;;;;;5.93;4.50;;;;;;;0.74;52.25;102616.81;689632;28;21202;-60
2021/03/06 01:25:41;;;;;;;6.93;4.80;;;;;;;0.72;52.12;102614.22;689163;28;22497;-59
2021/03/06 01:26:02;;;;;;;7.53;4.82;;;;;;;0.70;52.14;102621.41;688893;28;23456;-60
2021/03/06 01:26:24;;;;;;;6.32;4.88;;;;;;;0.68;52.12;102618.81;689197;28;22397;-60
2021/03/06 01:26:45;;;;;;;7.65;4.78;;;;;;;0.66;52.23;102618.03;688448;28;45230;-60
2021/03/06 01:27:06;;;;;;;5.93;4.57;;;;;;;0.65;52.37;102621.59;690444;28;22410;-61
2021/03/06 01:27:27;;;;;;;5.50;4.78;;;;;;;0.66;52.52;102617.16;689543;28;21669;-61
2021/03/06 01:27:48;;;;;;;5.82;4.72;;;;;;;0.66;52.28;102620.69;689615;28;22397;-61
2021/03/06 01:28:09;;;;;;;6.63;4.60;;;;;;;0.66;52.27;102612.69;690063;28;12149;-60
2021/03/06 01:28:31;;;;;;;6.00;4.68;;;;;;;0.68;52.29;102624.13;689291;28;22439;-61
2021/03/06 01:28:52;;;;;;;5.20;4.68;;;;;;;0.66;52.23;102618.03;689765;28;23228;-61
2021/03/06 01:29:13;;;;;;;5.88;4.80;;;;;;;0.67;52.44;102614.41;689620;28;23408;-60
2021/03/06 01:29:35;;;;;;;5.90;4.22;;;;;;;0.66;52.35;102606.53;689146;28;23427;-60
2021/03/06 01:29:56;;;;;;;8.45;4.75;;;;;;;0.68;52.35;102618.81;688900;28;46274;-60
2021/03/06 01:30:18;;;;;;;6.50;5.03;;;;;;;0.65;52.20;102610.09;688449;28;22242;-60
2021/03/06 01:30:39;;;;;;;5.75;4.60;;;;;;;0.66;52.26;102614.50;687752;28;68622;-59
2021/03/06 01:31:02;;;;;;;5.95;4.93;;;;;;;0.65;52.33;102615.44;688702;28;22229;-60
2021/03/06 01:31:23;;;;;;;5.97;4.90;;;;;;;0.68;52.35;102612.63;688148;28;46352;-59
2021/03/06 01:31:44;;;;;;;5.50;4.68;;;;;;;0.68;52.27;102616.16;690041;28;1101;-59
2021/03/06 01:32:05;;;;;;;5.13;4.63;;;;;;;0.65;52.20;102618.94;690638;28;22191;-60
2021/03/06 01:32:26;;;;;;;5.20;4.70;;;;;;;0.67;52.25;102619.72;688192;28;45283;-59
2021/03/06 01:32:48;;;;;;;6.38;4.78;;;;;;;0.66;52.47;102618.03;689503;28;22185;-57
2021/03/06 01:33:09;;;;;;;7.05;4.55;;;;;;;0.68;52.25;102612.63;689469;28;14103;-57
2021/03/06 01:33:30;;;;;;;5.97;4.70;;;;;;;0.66;52.23;102617.16;689407;28;20976;-60
2021/03/06 01:33:51;;;;;;;5.22;4.63;;;;;;;0.66;52.20;102610.03;689436;28;22500;-59
2021/03/06 01:34:13;;;;;;;6.95;4.50;;;;;;;0.66;52.28;102612.69;689744;28;20234;-62
2021/03/06 01:34:34;;;;;;;7.82;5.00;;;;;;;0.65;52.37;102602.97;689511;28;43955;-60
2021/03/06 01:34:55;;;;;;;5.63;4.55;;;;;;;0.68;52.44;102615.28;688665;28;47323;-59
2021/03/06 01:35:19;;;;;;;8.60;4.60;;;;;;;0.65;52.43;102610.97;689054;28;23682;-59
2021/03/06 01:35:40;;;;;;;6.57;4.70;;;;;;;0.66;52.45;102617.16;687708;28;60737;-60
2021/03/06 01:36:02;;;;;;;6.93;4.45;;;;;;;0.66;52.37;102611.84;688716;28;43081;-59
2021/03/06 01:36:23;;;;;;;6.10;4.75;;;;;;;0.66;52.44;102617.16;690301;28;811;-60
2021/03/06 01:36:44;;;;;;;6.00;4.85;;;;;;;0.66;52.35;102612.69;688891;28;23493;-59
2021/03/06 01:37:05;;;;;;;6.07;4.72;;;;;;;0.64;52.51;102614.56;689919;28;23075;-60
2021/03/06 01:37:26;;;;;;;6.22;5.03;;;;;;;0.65;52.36;102616.28;688174;28;44455;-59
2021/03/06 01:37:48;;;;;;;6.55;5.25;;;;;;;0.64;52.27;102614.56;689433;28;23381;-59
2021/03/06 01:38:09;;;;;;;5.10;4.55;;;;;;;0.63;52.41;102609.31;689305;28;24353;-59
2021/03/06 01:38:30;;;;;;;5.28;4.45;;;;;;;0.62;52.47;102610.25;689146;28;22413;-59
2021/03/06 01:38:51;;;;;;;5.30;4.80;;;;;;;0.63;52.37;102618.16;688127;28;44401;-59
2021/03/06 01:39:16;;;;;;;4.85;4.43;;;;;;;0.63;52.30;102612.84;689735;28;954;-60
2021/03/06 01:39:37;;;;;;;5.97;4.13;;;;;;;0.65;52.25;102615.44;689049;28;44283;-60
2021/03/06 01:39:58;;;;;;;4.97;4.47;;;;;;;0.64;52.33;102617.22;689747;28;22390;-61
2021/03/06 01:40:23;;;;;;;5.47;4.70;;;;;;;0.65;52.27;102612.75;688665;28;45304;-61
2021/03/06 01:40:44;;;;;;;6.53;4.75;;;;;;;0.64;52.62;102614.56;688963;28;38080;-61
2021/03/06 01:41:05;;;;;;;6.72;4.68;;;;;;;0.63;52.48;102612.84;688815;28;23528;-61
2021/03/06 01:41:27;;;;;;;5.85;4.88;;;;;;;0.63;52.31;102612.84;689578;28;23433;-60
2021/03/06 01:41:48;;;;;;;6.30;5.07;;;;;;;0.66;52.25;102607.38;689039;28;19584;-61
2021/03/06 01:42:09;;;;;;;7.45;5.00;;;;;;;0.68;52.20;102605.50;689647;28;23475;-60
2021/03/06 01:42:30;;;;;;;7.32;4.60;;;;;;;0.70;52.28;102608.09;688870;28;34654;-61
2021/03/06 01:42:52;;;;;;;5.15;4.57;;;;;;;0.69;52.16;102607.25;688636;28;18264;-61